createdAt,value
2023-04-24T00:02:14.848Z,46.27
2023-04-24T00:04:45.926Z,46.47
2023-04-24T00:07:14.281Z,46.48
2023-04-24T00:09:41.795Z,46.35
2023-04-24T00:12:10.699Z,46.31
2023-04-24T00:14:38.144Z,46.35
2023-04-24T00:17:06.370Z,46.56
2023-04-24T00:19:33.863Z,46.23
2023-04-24T00:22:06.766Z,46.62
2023-04-24T00:24:34.702Z,46.04
2023-04-24T00:27:03.499Z,46.13
2023-04-24T00:29:30.752Z,45.82
2023-04-24T00:31:58.670Z,45.80
2023-04-24T00:34:26.213Z,46.22
2023-04-24T00:36:53.737Z,45.81
2023-04-24T00:39:21.428Z,46.30
2023-04-24T00:41:49.653Z,46.13
2023-04-24T00:44:16.928Z,46.10
2023-04-24T00:46:44.817Z,46.12
2023-04-24T00:49:13.351Z,45.88
2023-04-24T00:51:41.842Z,46.16
2023-04-24T00:54:09.084Z,46.27
2023-04-24T00:56:37.019Z,46.00
2023-04-24T00:59:05.403Z,46.25
2023-04-24T01:01:33.877Z,46.14
2023-04-24T01:04:02.096Z,46.19
2023-04-24T01:06:32.296Z,46.38
2023-04-24T01:09:01.481Z,45.85
2023-04-24T01:11:30.363Z,45.98
2023-04-24T01:13:58.463Z,45.88
2023-04-24T01:16:26.215Z,45.89
2023-04-24T01:18:53.553Z,45.83
2023-04-24T01:21:22.674Z,44.72
2023-04-24T01:23:50.177Z,45.39
2023-04-24T01:26:21.209Z,44.96
2023-04-24T01:28:49.768Z,44.80
2023-04-24T01:31:17.694Z,45.21
2023-04-24T01:33:45.120Z,44.92
2023-04-24T01:36:13.102Z,45.00
2023-04-24T01:38:40.564Z,45.09
2023-04-24T01:41:08.179Z,44.73
2023-04-24T01:43:35.553Z,44.60
2023-04-24T01:46:03.326Z,44.62
2023-04-24T01:48:31.409Z,44.47
2023-04-24T01:50:59.374Z,44.23
2023-04-24T01:53:26.686Z,44.26
2023-04-24T01:55:54.288Z,43.98
2023-04-24T01:58:22.243Z,44.28
2023-04-24T02:00:49.858Z,44.33
2023-04-24T02:03:17.179Z,44.60
2023-04-24T02:05:47.871Z,44.34
2023-04-24T02:08:15.100Z,44.34
2023-04-24T02:10:42.587Z,44.68
2023-04-24T02:13:09.839Z,44.36
2023-04-24T02:15:37.712Z,44.58
2023-04-24T02:18:05.066Z,44.17
2023-04-24T02:20:35.033Z,44.59
2023-04-24T02:23:02.815Z,44.27
2023-04-24T02:25:30.673Z,44.37
2023-04-24T02:27:57.923Z,44.11
2023-04-24T02:30:25.738Z,44.41
2023-04-24T02:32:52.930Z,44.48
2023-04-24T02:35:21.121Z,44.29
2023-04-24T02:37:48.400Z,44.56
2023-04-24T02:40:16.382Z,44.51
2023-04-24T02:42:43.660Z,44.64
2023-04-24T02:45:11.745Z,44.62
2023-04-24T02:47:39.137Z,44.33
2023-04-24T02:50:08.124Z,44.06
2023-04-24T02:52:35.404Z,44.33
2023-04-24T02:55:03.634Z,44.36
2023-04-24T02:57:30.988Z,43.71
2023-04-24T02:59:58.495Z,44.05
2023-04-24T03:02:25.883Z,44.21
2023-04-24T03:04:54.026Z,44.07
2023-04-24T03:07:21.869Z,44.15
2023-04-24T03:09:50.061Z,43.48
2023-04-24T03:12:19.338Z,43.91
2023-04-24T03:14:52.638Z,43.27
2023-04-24T03:17:19.963Z,43.57
2023-04-24T03:19:47.566Z,43.45
2023-04-24T03:22:14.819Z,43.52
2023-04-24T03:24:42.388Z,43.34
2023-04-24T03:27:09.645Z,43.28
2023-04-24T03:29:37.126Z,43.05
2023-04-24T03:32:04.608Z,43.36
2023-04-24T03:34:32.142Z,42.99
2023-04-24T03:36:59.342Z,43.24
2023-04-24T03:39:26.928Z,43.05
2023-04-24T03:41:54.165Z,42.88
2023-04-24T03:44:21.695Z,42.50
2023-04-24T03:46:48.941Z,42.67
2023-04-24T03:49:16.416Z,42.56
2023-04-24T03:51:43.698Z,42.74
2023-04-24T03:54:11.640Z,42.82
2023-04-24T03:56:38.882Z,42.40
2023-04-24T03:59:06.814Z,42.27
2023-04-24T04:01:37.732Z,42.16
2023-04-24T04:04:05.834Z,41.99
2023-04-24T04:06:33.648Z,42.13
2023-04-24T04:09:01.649Z,42.12
2023-04-24T04:11:28.932Z,42.25
2023-04-24T04:13:57.791Z,41.40
2023-04-24T04:16:25.544Z,41.42
2023-04-24T04:18:53.179Z,41.30
2023-04-24T04:21:20.578Z,41.16
2023-04-24T04:23:48.123Z,40.92
2023-04-24T04:26:15.465Z,41.17
2023-04-24T04:28:43.140Z,40.66
2023-04-24T04:31:10.559Z,40.66
2023-04-24T04:33:39.200Z,40.88
2023-04-24T04:36:06.848Z,40.80
2023-04-24T04:38:34.725Z,40.44
2023-04-24T04:41:02.248Z,40.45
2023-04-24T04:43:29.747Z,39.76
2023-04-24T04:45:57.170Z,39.57
2023-04-24T04:48:24.798Z,39.58
2023-04-24T04:50:52.081Z,39.58
2023-04-24T04:53:19.571Z,39.12
2023-04-24T04:55:47.919Z,38.95
2023-04-24T04:58:15.618Z,38.99
2023-04-24T05:00:43.623Z,38.88
2023-04-24T05:03:20.607Z,38.97
2023-04-24T05:05:48.893Z,38.60
2023-04-24T05:08:26.461Z,38.95
2023-04-24T05:10:55.854Z,38.60
2023-04-24T05:13:35.623Z,37.91
2023-04-24T05:16:07.667Z,38.42
2023-04-24T05:18:35.418Z,38.69
2023-04-24T05:21:02.733Z,38.73
2023-04-24T05:23:30.239Z,38.05
2023-04-24T05:25:57.782Z,38.15
2023-04-24T05:28:29.445Z,38.40
2023-04-24T05:30:57.198Z,38.93
2023-04-24T05:33:24.767Z,38.99
2023-04-24T05:35:52.393Z,39.27
2023-04-24T05:38:20.820Z,38.60
2023-04-24T05:40:48.157Z,39.45
2023-04-24T05:43:15.856Z,39.32
2023-04-24T05:45:43.089Z,39.30
2023-04-24T05:48:10.644Z,39.25
2023-04-24T05:50:37.890Z,39.37
2023-04-24T05:53:07.877Z,39.17
2023-04-24T05:55:35.414Z,39.14
2023-04-24T05:58:03.097Z,39.33
2023-04-24T06:00:30.436Z,39.22
2023-04-24T06:02:58.825Z,39.38
2023-04-24T06:05:26.314Z,39.46
2023-04-24T06:07:53.983Z,39.11
2023-04-24T06:10:21.338Z,39.25
2023-04-24T06:12:48.954Z,39.06
2023-04-24T06:15:16.240Z,39.18
2023-04-24T06:17:43.820Z,39.38
2023-04-24T06:20:12.110Z,38.68
2023-04-24T06:22:41.089Z,38.69
2023-04-24T06:25:08.887Z,38.93
2023-04-24T06:27:36.404Z,38.72
2023-04-24T06:30:04.427Z,38.90
2023-04-24T06:32:32.241Z,38.47
2023-04-24T06:34:59.706Z,38.37
2023-04-24T06:37:27.514Z,36.76
2023-04-24T06:39:54.732Z,35.90
2023-04-24T06:42:23.082Z,35.13
2023-04-24T06:44:50.315Z,34.04
2023-04-24T06:47:17.913Z,33.40
2023-04-24T06:49:45.847Z,32.32
2023-04-24T06:52:13.705Z,31.71
2023-04-24T06:54:42.729Z,31.21
2023-04-24T06:57:11.443Z,31.54
2023-04-24T06:59:39.467Z,31.44
2023-04-24T07:02:07.225Z,31.51
2023-04-24T07:04:34.876Z,31.68
2023-04-24T07:07:04.081Z,31.62
2023-04-24T07:09:31.371Z,31.57
2023-04-24T07:11:58.946Z,31.55
2023-04-24T07:14:26.541Z,31.20
2023-04-24T07:16:54.184Z,31.68
2023-04-24T07:19:21.372Z,31.38
2023-04-24T07:21:48.967Z,32.23
2023-04-24T07:24:16.268Z,32.24
2023-04-24T07:26:44.344Z,31.06
2023-04-24T07:29:11.798Z,31.45
2023-04-24T07:31:39.521Z,32.04
2023-04-24T07:34:06.935Z,30.66
2023-04-24T07:36:34.592Z,30.88
2023-04-24T07:39:01.911Z,30.97
2023-04-24T07:41:29.480Z,29.90
2023-04-24T07:43:56.778Z,29.70
2023-04-24T07:46:24.656Z,29.67
2023-04-24T07:49:05.334Z,29.41
2023-04-24T07:51:39.462Z,28.76
2023-04-24T07:54:07.191Z,28.88
2023-04-24T07:56:35.741Z,27.87
2023-04-24T07:59:03.044Z,27.83
2023-04-24T08:01:30.571Z,26.39
2023-04-24T08:03:58.169Z,26.04
2023-04-24T08:06:28.967Z,25.78
2023-04-24T08:08:56.251Z,26.37
2023-04-24T08:11:24.969Z,26.22
2023-04-24T08:13:52.305Z,26.52
2023-04-24T08:16:19.946Z,26.82
2023-04-24T08:18:47.344Z,25.80
2023-04-24T08:21:18.329Z,26.10
2023-04-24T08:23:46.890Z,25.68
2023-04-24T08:26:14.961Z,25.85
2023-04-24T08:28:43.389Z,25.86
2023-04-24T08:31:11.288Z,25.01
2023-04-24T08:33:38.592Z,25.27
2023-04-24T08:36:07.751Z,24.70
2023-04-24T08:38:35.375Z,23.89
2023-04-24T08:41:03.127Z,23.97
2023-04-24T08:43:31.475Z,23.84
2023-04-24T08:46:00.477Z,23.80
2023-04-24T08:48:31.861Z,23.76
2023-04-24T08:51:00.852Z,22.77
2023-04-24T08:53:28.428Z,23.18
2023-04-24T08:55:57.888Z,22.84
2023-04-24T08:58:29.875Z,22.68
2023-04-24T09:00:58.416Z,22.19
2023-04-24T09:03:28.833Z,22.30
2023-04-24T09:05:58.530Z,22.29
2023-04-24T09:08:27.526Z,22.02
2023-04-24T09:10:55.222Z,23.24
2023-04-24T09:13:22.780Z,23.59
2023-04-24T09:15:50.789Z,21.63
2023-04-24T09:18:18.844Z,21.29
2023-04-24T09:21:01.467Z,20.34
2023-04-24T09:23:33.031Z,20.22
2023-04-24T09:26:02.812Z,19.09
2023-04-24T09:28:42.020Z,17.80
2023-04-24T09:31:22.656Z,16.50
2023-04-24T09:34:01.716Z,16.17
2023-04-24T09:37:05.003Z,15.56
2023-04-24T09:39:33.200Z,16.14
2023-04-24T09:42:03.395Z,16.26
2023-04-24T09:44:38.841Z,16.25
2023-04-24T09:47:11.189Z,15.80
2023-04-24T09:49:40.660Z,15.55
2023-04-24T09:52:11.424Z,15.04
2023-04-24T09:54:40.750Z,15.49
2023-04-24T09:57:11.438Z,15.37
2023-04-24T09:59:45.782Z,14.77
2023-04-24T10:02:21.684Z,14.97
2023-04-24T10:05:01.086Z,15.99
2023-04-24T10:07:29.413Z,15.59
2023-04-24T10:09:57.326Z,15.89
2023-04-24T10:12:26.345Z,14.95
2023-04-24T10:14:54.486Z,13.51
2023-04-24T10:17:24.683Z,14.44
2023-04-24T10:19:53.357Z,13.83
2023-04-24T10:22:22.815Z,13.32
2023-04-24T10:24:52.618Z,14.26
2023-04-24T10:27:23.054Z,14.86
2023-04-24T10:29:54.367Z,14.58
2023-04-24T10:32:22.004Z,18.93
2023-04-24T10:34:49.820Z,20.64
2023-04-24T10:37:17.853Z,22.32
2023-04-24T10:39:49.918Z,23.70
2023-04-24T10:42:18.438Z,25.48
2023-04-24T10:44:50.506Z,26.79
2023-04-24T10:47:18.468Z,27.40
2023-04-24T10:49:46.568Z,27.61
2023-04-24T10:52:16.056Z,29.58
2023-04-24T10:54:47.084Z,30.32
2023-04-24T10:57:20.893Z,30.87
2023-04-24T10:59:50.662Z,30.98
2023-04-24T11:02:19.795Z,32.26
2023-04-24T11:04:47.495Z,33.62
2023-04-24T11:07:22.494Z,35.30
2023-04-24T11:10:02.423Z,34.76
2023-04-24T11:12:29.972Z,34.79
2023-04-24T11:15:00.731Z,36.37
2023-04-24T11:17:35.835Z,35.41
2023-04-24T11:20:19.393Z,35.76
2023-04-24T11:22:55.949Z,36.44
2023-04-24T11:25:24.137Z,36.30
2023-04-24T11:28:04.222Z,35.81
2023-04-24T11:30:34.611Z,37.57
2023-04-24T11:33:06.567Z,37.06
2023-04-24T11:35:41.884Z,36.18
2023-04-24T11:40:42.308Z,35.16
2023-04-24T11:43:11.592Z,35.58
2023-04-24T11:45:39.872Z,35.37
2023-04-24T11:48:07.369Z,35.31
2023-04-24T11:50:35.366Z,35.34
2023-04-24T11:53:02.903Z,35.89
2023-04-24T11:55:31.310Z,35.59
2023-04-24T11:58:01.177Z,35.39
2023-04-24T12:00:32.235Z,36.14
2023-04-24T12:03:13.190Z,37.01
2023-04-24T12:05:41.842Z,37.07
2023-04-24T12:08:09.427Z,39.14
2023-04-24T12:10:37.378Z,39.15
2023-04-24T12:13:04.814Z,39.51
2023-04-24T12:15:32.687Z,39.70
2023-04-24T12:18:00.771Z,38.83
2023-04-24T12:20:32.666Z,37.91
2023-04-24T12:23:02.263Z,37.87
2023-04-24T12:25:34.048Z,38.09
2023-04-24T12:28:04.388Z,37.27
2023-04-24T12:30:35.305Z,37.81
2023-04-24T12:33:04.855Z,39.25
2023-04-24T12:35:35.125Z,40.49
2023-04-24T12:38:11.500Z,40.43
2023-04-24T12:40:39.104Z,39.75
2023-04-24T12:43:20.892Z,40.38
2023-04-24T12:45:51.301Z,42.51
2023-04-24T12:48:18.718Z,41.38
2023-04-24T12:50:47.298Z,42.11
2023-04-24T12:53:16.887Z,43.02
2023-04-24T12:55:46.128Z,43.25
2023-04-24T12:58:14.025Z,43.02
2023-04-24T13:00:44.569Z,43.20
2023-04-24T13:03:12.771Z,44.09
2023-04-24T13:05:41.299Z,43.08
2023-04-24T13:08:08.573Z,44.40
2023-04-24T13:10:36.649Z,44.92
2023-04-24T13:13:04.654Z,45.16
2023-04-24T13:15:32.234Z,46.52
2023-04-24T13:17:59.511Z,46.19
2023-04-24T13:20:27.248Z,46.77
2023-04-24T13:22:54.526Z,47.72
2023-04-24T13:25:23.813Z,47.45
2023-04-24T13:27:51.868Z,47.61
2023-04-24T13:30:19.617Z,48.15
2023-04-24T13:32:46.989Z,48.86
2023-04-24T13:35:14.849Z,48.30
2023-04-24T13:37:42.121Z,48.84
2023-04-24T13:40:10.651Z,49.80
2023-04-24T13:42:37.982Z,50.20
2023-04-24T13:45:21.187Z,51.01
2023-04-24T13:47:52.423Z,52.93
2023-04-24T13:50:21.563Z,53.06
2023-04-24T13:52:48.868Z,52.88
2023-04-24T13:55:16.608Z,54.45
2023-04-24T13:57:43.899Z,55.27
2023-04-24T14:00:12.523Z,55.99
2023-04-24T14:02:40.372Z,55.97
2023-04-24T14:05:08.726Z,59.59
2023-04-24T14:07:35.971Z,60.11
2023-04-24T14:10:03.730Z,59.72
2023-04-24T14:12:31.216Z,58.49
2023-04-24T14:14:58.824Z,58.25
2023-04-24T14:17:26.245Z,59.06
2023-04-24T14:19:57.250Z,60.05
2023-04-24T14:22:24.668Z,59.86
2023-04-24T14:24:52.341Z,58.72
2023-04-24T14:27:19.654Z,58.13
2023-04-24T14:29:47.206Z,57.70
2023-04-24T14:32:16.231Z,57.37
2023-04-24T14:34:43.848Z,57.14
2023-04-24T14:37:11.322Z,58.39
2023-04-24T14:39:38.994Z,56.63
2023-04-24T14:42:06.343Z,55.59
2023-04-24T14:44:34.205Z,55.70
2023-04-24T14:47:01.651Z,56.21
2023-04-24T14:49:29.199Z,55.96
2023-04-24T14:51:56.600Z,56.49
2023-04-24T14:54:24.510Z,56.98
2023-04-24T14:56:52.291Z,56.74
2023-04-24T14:59:19.908Z,57.28
2023-04-24T15:01:47.232Z,55.89
2023-04-24T15:04:15.676Z,56.80
2023-04-24T15:06:43.419Z,56.04
2023-04-24T15:09:11.069Z,57.63
2023-04-24T15:11:38.400Z,57.54
2023-04-24T15:14:06.380Z,58.00
2023-04-24T15:16:33.779Z,57.26
2023-04-24T15:19:01.854Z,56.97
2023-04-24T15:21:29.127Z,56.34
2023-04-24T15:23:56.855Z,56.99
2023-04-24T15:26:25.664Z,58.72
2023-04-24T15:28:53.763Z,57.42
2023-04-24T15:31:21.510Z,57.40
2023-04-24T15:33:50.767Z,56.66
2023-04-24T15:36:18.809Z,56.37
2023-04-24T15:38:46.662Z,56.69
2023-04-24T15:41:14.441Z,58.88
2023-04-24T15:43:42.587Z,56.74
2023-04-24T15:46:11.372Z,56.91
2023-04-24T15:48:41.571Z,58.12
2023-04-24T15:51:09.383Z,58.66
2023-04-24T15:53:37.052Z,59.21
2023-04-24T15:56:04.699Z,60.35
2023-04-24T15:58:32.536Z,60.33
2023-04-24T16:01:00.436Z,60.21
2023-04-24T16:03:28.207Z,60.27
2023-04-24T16:05:55.552Z,60.38
2023-04-24T16:08:23.224Z,60.29
2023-04-24T16:10:51.003Z,60.70
2023-04-24T16:13:19.105Z,60.85
2023-04-24T16:15:46.703Z,62.90
2023-04-24T16:18:14.427Z,61.55
2023-04-24T16:20:41.804Z,62.69
2023-04-24T16:23:10.119Z,62.63
2023-04-24T16:25:37.814Z,62.17
2023-04-24T16:28:05.570Z,62.82
2023-04-24T16:30:33.083Z,63.58
2023-04-24T16:33:09.197Z,63.32
2023-04-24T16:35:36.858Z,64.45
2023-04-24T16:38:04.834Z,63.84
2023-04-24T16:40:32.197Z,63.23
2023-04-24T16:42:59.728Z,65.81
2023-04-24T16:45:26.996Z,65.96
2023-04-24T16:47:54.554Z,64.99
2023-04-24T16:50:22.035Z,64.98
2023-04-24T16:52:49.560Z,65.00
2023-04-24T16:55:17.049Z,66.35
2023-04-24T16:57:44.739Z,65.57
2023-04-24T17:00:13.072Z,66.04
2023-04-24T17:02:40.998Z,65.90
2023-04-24T17:05:08.786Z,65.68
2023-04-24T17:07:36.592Z,65.94
2023-04-24T17:10:04.554Z,66.60
2023-04-24T17:12:32.047Z,69.37
2023-04-24T17:14:59.333Z,68.30
2023-04-24T17:17:28.308Z,67.30
2023-04-24T17:19:55.639Z,67.82
2023-04-24T17:22:23.192Z,67.53
2023-04-24T17:24:50.634Z,68.29
2023-04-24T17:27:18.371Z,68.25
2023-04-24T17:29:45.951Z,68.43
2023-04-24T17:32:13.573Z,68.75
2023-04-24T17:34:40.846Z,68.87
2023-04-24T17:37:08.648Z,68.63
2023-04-24T17:39:36.157Z,69.43
2023-04-24T17:42:03.823Z,69.52
2023-04-24T17:44:31.051Z,69.62
2023-04-24T17:46:58.687Z,73.02
2023-04-24T17:49:26.002Z,71.05
2023-04-24T17:51:53.593Z,70.79
2023-04-24T17:54:20.835Z,70.62
2023-04-24T17:56:49.244Z,70.97
2023-04-24T17:59:17.175Z,72.85
2023-04-24T18:01:44.804Z,73.02
2023-04-24T18:04:12.233Z,72.39
2023-04-24T18:06:40.082Z,73.31
2023-04-24T18:09:08.428Z,73.33
2023-04-24T18:11:36.090Z,73.67
2023-04-24T18:14:03.430Z,73.80
2023-04-24T18:16:31.094Z,73.24
2023-04-24T18:18:59.713Z,74.00
2023-04-24T18:21:28.498Z,76.08
2023-04-24T18:23:55.900Z,76.73
2023-04-24T18:26:23.457Z,75.74
2023-04-24T18:28:50.872Z,76.36
2023-04-24T18:31:18.678Z,77.82
2023-04-24T18:33:46.112Z,79.66
2023-04-24T18:36:14.004Z,78.51
2023-04-24T18:38:41.381Z,79.80
2023-04-24T18:41:09.036Z,78.32
2023-04-24T18:43:36.362Z,79.11
2023-04-24T18:46:03.993Z,79.75
2023-04-24T18:48:31.392Z,80.21
2023-04-24T18:50:58.963Z,79.84
2023-04-24T18:53:26.298Z,79.22
2023-04-24T18:55:53.816Z,80.30
2023-04-24T18:58:21.157Z,79.82
2023-04-24T19:00:48.767Z,79.90
2023-04-24T19:03:16.269Z,80.53
2023-04-24T19:05:43.907Z,80.64
2023-04-24T19:08:11.238Z,80.57
2023-04-24T19:10:38.848Z,81.69
2023-04-24T19:13:06.268Z,81.56
2023-04-24T19:15:34.135Z,82.15
2023-04-24T19:18:01.652Z,82.16
2023-04-24T19:20:29.716Z,81.50
2023-04-24T19:22:57.282Z,82.56
2023-04-24T19:25:25.405Z,83.54
2023-04-24T19:27:53.017Z,84.55
2023-04-24T19:30:20.778Z,84.84
2023-04-24T19:32:48.051Z,83.87
2023-04-24T19:35:15.829Z,84.31
2023-04-24T19:37:43.174Z,84.76
2023-04-24T19:40:12.889Z,84.28
2023-04-24T19:42:44.401Z,84.33
2023-04-24T19:45:13.398Z,85.77
2023-04-24T19:47:40.980Z,87.34
2023-04-24T19:50:10.072Z,87.92
2023-04-24T19:52:37.558Z,88.42
2023-04-24T19:55:05.765Z,87.96
2023-04-24T19:57:32.971Z,89.89
2023-04-24T20:00:00.601Z,88.73
2023-04-24T20:02:28.210Z,88.46
2023-04-24T20:04:56.080Z,88.69
2023-04-24T20:07:23.545Z,89.43
2023-04-24T20:09:51.100Z,91.46
2023-04-24T20:12:19.572Z,92.10
2023-04-24T20:14:48.660Z,90.38
2023-04-24T20:17:17.390Z,89.48
2023-04-24T20:19:45.075Z,89.71
2023-04-24T20:22:13.430Z,89.74
2023-04-24T20:24:41.549Z,90.52
2023-04-24T20:27:08.909Z,93.34
2023-04-24T20:29:36.552Z,91.47
2023-04-24T20:32:04.004Z,90.97
2023-04-24T20:34:32.193Z,90.65
2023-04-24T20:36:59.583Z,91.01
2023-04-24T20:39:27.356Z,93.26
2023-04-24T20:41:54.855Z,93.69
2023-04-24T20:44:22.953Z,95.00
2023-04-24T20:46:50.470Z,95.84
2023-04-24T20:49:18.071Z,95.91
2023-04-24T20:51:45.604Z,94.75
2023-04-24T20:54:13.137Z,95.02
2023-04-24T20:56:40.453Z,95.89
2023-04-24T20:59:08.056Z,98.59
2023-04-24T21:01:35.371Z,99.44
2023-04-24T21:04:03.511Z,100.00
2023-04-24T21:06:32.081Z,100.00
2023-04-24T21:08:59.604Z,100.00
2023-04-24T21:11:27.454Z,100.00
2023-04-24T21:13:54.975Z,100.00
2023-04-24T21:16:22.259Z,100.00
2023-04-24T21:18:49.829Z,100.00
2023-04-24T21:21:17.123Z,99.85
2023-04-24T21:23:44.672Z,98.25
2023-04-24T21:26:13.057Z,96.84
2023-04-24T21:28:40.694Z,97.33
2023-04-24T21:31:08.306Z,97.69
2023-04-24T21:33:35.916Z,96.19
2023-04-24T21:36:03.441Z,95.68
2023-04-24T21:38:31.086Z,95.35
2023-04-24T21:40:58.444Z,96.28
2023-04-24T21:43:37.269Z,97.14
2023-04-24T21:46:11.295Z,95.66
2023-04-24T21:48:38.835Z,94.40
2023-04-24T21:51:06.150Z,93.81
2023-04-24T21:53:33.772Z,92.67
2023-04-24T21:56:01.229Z,92.21
2023-04-24T21:58:29.092Z,92.00
2023-04-24T22:00:56.432Z,91.22
2023-04-24T22:03:24.085Z,90.79
2023-04-24T22:05:51.461Z,90.09
2023-04-24T22:08:19.114Z,89.94
2023-04-24T22:10:46.393Z,89.38
2023-04-24T22:13:13.916Z,89.42
2023-04-24T22:15:41.136Z,88.71
2023-04-24T22:18:09.367Z,87.62
2023-04-24T22:20:36.736Z,87.39
2023-04-24T22:23:04.410Z,87.66
2023-04-24T22:25:31.778Z,87.55
2023-04-24T22:27:59.308Z,87.80
2023-04-24T22:30:26.648Z,87.74
2023-04-24T22:32:54.227Z,87.72
2023-04-24T22:35:21.543Z,87.81
2023-04-24T22:37:59.355Z,87.67
2023-04-24T22:40:26.772Z,87.35
2023-04-24T22:42:54.315Z,87.26
2023-04-24T22:45:24.614Z,87.20
2023-04-24T22:47:52.286Z,87.10
2023-04-24T22:50:20.508Z,87.07
2023-04-24T22:52:48.148Z,87.14
2023-04-24T22:55:15.460Z,87.38
2023-04-24T22:57:43.037Z,87.44
2023-04-24T23:00:12.873Z,87.49
2023-04-24T23:02:43.049Z,88.21
2023-04-24T23:05:11.454Z,87.96
2023-04-24T23:07:39.084Z,88.86
2023-04-24T23:10:07.333Z,89.73
2023-04-24T23:12:35.010Z,89.05
2023-04-24T23:15:02.403Z,88.56
2023-04-24T23:17:29.895Z,88.55
2023-04-24T23:19:57.180Z,89.11
2023-04-24T23:22:24.699Z,91.84
2023-04-24T23:24:52.081Z,90.87
2023-04-24T23:27:19.541Z,90.50
2023-04-24T23:29:46.860Z,89.75
2023-04-24T23:32:14.831Z,89.61
2023-04-24T23:34:43.711Z,89.99
2023-04-24T23:37:11.770Z,89.66
2023-04-24T23:39:39.016Z,89.58
2023-04-24T23:42:07.858Z,89.57
2023-04-24T23:44:35.331Z,90.77
2023-04-24T23:47:02.875Z,90.24
2023-04-24T23:49:30.131Z,91.08
2023-04-24T23:51:57.844Z,90.86
2023-04-24T23:54:26.238Z,90.23
2023-04-24T23:56:53.779Z,90.25
2023-04-24T23:59:21.710Z,91.54
